createdAt,value
2018-09-11T00:00:21.856Z,3.17
2018-09-11T00:02:48.788Z,4.00
2018-09-11T00:05:15.735Z,3.47
2018-09-11T00:07:42.678Z,4.17
2018-09-11T00:10:09.617Z,4.13
2018-09-11T00:12:36.628Z,3.93
2018-09-11T00:15:03.579Z,4.10
2018-09-11T00:17:30.521Z,4.10
2018-09-11T00:19:57.467Z,4.27
2018-09-11T00:22:24.397Z,4.10
2018-09-11T00:27:29.813Z,5.03
2018-09-11T00:29:56.754Z,4.10
2018-09-11T00:32:23.709Z,4.10
2018-09-11T00:34:50.636Z,4.13
2018-09-11T00:37:17.594Z,4.10
2018-09-11T00:39:44.529Z,3.73
2018-09-11T00:42:11.461Z,3.63
2018-09-11T00:44:38.422Z,4.10
2018-09-11T00:47:05.351Z,3.80
2018-09-11T00:49:32.282Z,3.57
2018-09-11T00:51:59.378Z,3.90
2018-09-11T00:54:26.159Z,3.80
2018-09-11T00:56:53.100Z,4.33
2018-09-11T00:59:20.043Z,4.23
2018-09-11T01:01:46.965Z,4.43
2018-09-11T01:04:13.910Z,5.07
2018-09-11T01:06:40.873Z,3.87
2018-09-11T01:09:07.821Z,4.07
2018-09-11T01:11:34.755Z,4.57
2018-09-11T01:14:01.699Z,4.00
2018-09-11T01:16:28.633Z,4.13
2018-09-11T01:18:55.585Z,4.73
2018-09-11T01:21:22.512Z,4.07
2018-09-11T01:23:49.458Z,4.47
2018-09-11T01:26:16.412Z,4.17
2018-09-11T01:28:43.367Z,3.50
2018-09-11T01:31:10.304Z,4.10
2018-09-11T01:33:37.241Z,3.83
2018-09-11T01:36:04.191Z,3.90
2018-09-11T01:38:31.156Z,4.83
2018-09-11T01:40:58.077Z,4.50
2018-09-11T01:43:24.998Z,4.20
2018-09-11T01:45:51.976Z,4.13
2018-09-11T01:48:18.906Z,4.10
2018-09-11T01:50:45.834Z,4.10
2018-09-11T01:55:51.219Z,5.40
2018-09-11T01:58:18.157Z,5.07
2018-09-11T02:00:45.081Z,5.03
2018-09-11T02:03:12.039Z,5.13
2018-09-11T02:05:38.979Z,4.23
2018-09-11T02:08:05.913Z,4.83
2018-09-11T02:10:32.871Z,4.30
2018-09-11T02:12:59.798Z,4.10
2018-09-11T02:15:26.730Z,4.30
2018-09-11T02:17:54.411Z,4.93
2018-09-11T02:20:21.340Z,4.53
2018-09-11T02:22:48.267Z,5.20
2018-09-11T02:25:15.301Z,5.77
2018-09-11T02:27:42.235Z,5.47
2018-09-11T02:30:09.184Z,4.40
2018-09-11T02:32:36.115Z,4.43
2018-09-11T02:35:03.076Z,4.60
2018-09-11T02:37:29.968Z,4.70
2018-09-11T02:39:56.941Z,5.00
2018-09-11T02:42:23.878Z,4.07
2018-09-11T02:44:50.808Z,4.43
2018-09-11T02:47:17.765Z,3.93
2018-09-11T02:49:44.685Z,4.77
2018-09-11T02:52:11.619Z,4.87
2018-09-11T02:54:38.559Z,4.67
2018-09-11T02:57:05.488Z,4.10
2018-09-11T02:59:32.425Z,4.30
2018-09-11T03:01:59.437Z,3.90
2018-09-11T03:04:26.394Z,4.30
2018-09-11T03:06:53.318Z,3.93
2018-09-11T03:09:20.262Z,4.60
2018-09-11T03:11:47.201Z,4.00
2018-09-11T03:14:14.128Z,4.07
2018-09-11T03:16:41.079Z,3.87
2018-09-11T03:21:46.468Z,5.07
2018-09-11T03:24:13.398Z,5.10
2018-09-11T03:26:40.345Z,4.43
2018-09-11T03:29:07.272Z,4.30
2018-09-11T03:31:34.217Z,4.73
2018-09-11T03:34:01.170Z,4.67
2018-09-11T03:36:28.120Z,4.80
2018-09-11T03:38:55.066Z,4.60
2018-09-11T03:41:21.992Z,4.00
2018-09-11T03:43:48.932Z,4.57
2018-09-11T03:46:15.877Z,4.00
2018-09-11T03:48:42.802Z,3.97
2018-09-11T03:51:09.743Z,4.40
2018-09-11T03:53:36.701Z,4.37
2018-09-11T03:56:03.624Z,4.30
2018-09-11T03:58:30.547Z,3.70
2018-09-11T04:00:57.489Z,4.40
2018-09-11T04:03:24.420Z,4.90
2018-09-11T04:05:51.368Z,4.33
2018-09-11T04:08:18.298Z,4.83
2018-09-11T04:10:45.242Z,4.77
2018-09-11T04:13:12.172Z,4.63
2018-09-11T04:15:39.122Z,4.67
2018-09-11T04:18:06.068Z,4.90
2018-09-11T04:20:33.000Z,5.30
2018-09-11T04:22:59.944Z,4.60
2018-09-11T04:25:26.894Z,5.40
2018-09-11T04:27:53.833Z,4.80
2018-09-11T04:30:20.782Z,4.50
2018-09-11T04:32:47.716Z,4.97
2018-09-11T04:35:14.669Z,4.83
2018-09-11T04:37:41.590Z,4.80
2018-09-11T04:40:08.543Z,5.43
2018-09-11T04:45:13.953Z,5.62
2018-09-11T04:47:40.897Z,5.57
2018-09-11T04:50:07.840Z,5.37
2018-09-11T04:52:34.785Z,5.70
2018-09-11T04:55:01.732Z,5.70
2018-09-11T04:57:28.676Z,5.13
2018-09-11T04:59:55.606Z,4.93
2018-09-11T05:02:22.638Z,4.70
2018-09-11T05:04:49.586Z,5.33
2018-09-11T05:07:16.618Z,4.47
2018-09-11T05:09:43.575Z,5.30
2018-09-11T05:12:10.640Z,4.93
2018-09-11T05:14:37.828Z,5.83
2018-09-11T05:17:04.777Z,5.30
2018-09-11T05:19:31.710Z,4.90
2018-09-11T05:21:58.658Z,4.77
2018-09-11T05:24:25.609Z,4.97
2018-09-11T05:26:52.526Z,4.70
2018-09-11T05:29:19.486Z,5.97
2018-09-11T05:31:46.380Z,4.90
2018-09-11T05:34:13.345Z,4.97
2018-09-11T05:36:40.310Z,5.40
2018-09-11T05:39:07.300Z,5.50
2018-09-11T05:41:34.165Z,5.60
2018-09-11T05:44:01.108Z,5.20
2018-09-11T05:46:28.040Z,6.63
2018-09-11T05:48:55.049Z,5.30
2018-09-11T05:51:21.998Z,6.40
2018-09-11T05:53:48.926Z,6.57
2018-09-11T05:56:15.873Z,6.10
2018-09-11T05:58:42.805Z,7.10
2018-09-11T06:01:09.763Z,6.20
2018-09-11T06:03:36.706Z,6.27
2018-09-11T06:08:42.106Z,6.50
2018-09-11T06:11:09.041Z,6.27
2018-09-11T06:13:36.055Z,5.47
2018-09-11T06:16:03.244Z,5.77
2018-09-11T06:18:30.741Z,5.67
2018-09-11T06:20:57.682Z,7.03
2018-09-11T06:23:24.625Z,6.03
2018-09-11T06:25:51.743Z,5.63
2018-09-11T06:28:18.494Z,6.03
2018-09-11T06:30:45.454Z,5.50
2018-09-11T06:33:12.385Z,5.90
2018-09-11T06:35:39.313Z,6.13
2018-09-11T06:38:06.261Z,4.63
2018-09-11T06:40:33.185Z,5.97
2018-09-11T06:43:00.140Z,5.23
2018-09-11T06:45:27.078Z,7.27
2018-09-11T06:47:54.030Z,6.03
2018-09-11T06:50:20.972Z,5.50
2018-09-11T06:52:48.014Z,5.87
2018-09-11T06:55:14.970Z,5.70
2018-09-11T06:57:41.906Z,5.77
2018-09-11T07:00:08.857Z,5.00
2018-09-11T07:02:35.805Z,5.33
2018-09-11T07:05:02.743Z,5.13
2018-09-11T07:07:29.728Z,5.07
2018-09-11T07:09:56.676Z,4.53
2018-09-11T07:12:23.622Z,5.37
2018-09-11T07:14:50.641Z,5.67
2018-09-11T07:17:17.520Z,5.10
2018-09-11T07:19:44.515Z,4.80
2018-09-11T07:22:11.423Z,4.60
2018-09-11T07:24:38.390Z,5.07
2018-09-11T07:27:05.372Z,5.57
2018-09-11T07:29:32.342Z,4.87
2018-09-11T07:34:37.783Z,4.75
2018-09-11T07:37:04.752Z,5.43
2018-09-11T07:39:31.703Z,5.10
2018-09-11T07:41:58.677Z,4.90
2018-09-11T07:44:25.619Z,5.13
2018-09-11T07:46:52.618Z,4.57
2018-09-11T07:49:19.590Z,4.37
2018-09-11T07:51:46.643Z,4.77
2018-09-11T07:54:13.602Z,4.10
2018-09-11T07:56:40.539Z,4.47
2018-09-11T07:59:07.514Z,3.83
2018-09-11T08:01:34.465Z,4.00
2018-09-11T08:04:01.461Z,4.07
2018-09-11T08:06:28.423Z,4.53
2018-09-11T08:08:55.373Z,5.47
2018-09-11T08:11:22.346Z,4.40
2018-09-11T08:13:49.291Z,4.30
2018-09-11T08:16:16.331Z,5.03
2018-09-11T08:18:43.233Z,4.80
2018-09-11T08:21:10.188Z,4.37
2018-09-11T08:23:37.128Z,4.30
2018-09-11T08:26:04.083Z,4.67
2018-09-11T08:28:31.040Z,4.50
2018-09-11T08:33:38.980Z,4.93
2018-09-11T08:36:05.919Z,4.47
2018-09-11T08:38:32.878Z,4.27
2018-09-11T08:40:59.888Z,4.73
2018-09-11T08:43:26.791Z,3.70
2018-09-11T08:45:53.746Z,4.03
2018-09-11T08:48:20.710Z,4.57
2018-09-11T08:50:47.676Z,4.20
2018-09-11T08:53:14.651Z,4.00
2018-09-11T08:55:41.610Z,3.83
2018-09-11T08:58:08.554Z,3.70
2018-09-11T09:00:35.548Z,3.40
2018-09-11T09:03:02.481Z,4.23
2018-09-11T09:05:29.435Z,3.70
2018-09-11T09:07:56.389Z,3.40
2018-09-11T09:10:23.343Z,3.60
2018-09-11T09:12:50.281Z,3.63
2018-09-11T09:15:17.224Z,4.17
2018-09-11T09:17:44.187Z,3.70
2018-09-11T09:20:11.140Z,3.90
2018-09-11T09:22:38.095Z,3.20
2018-09-11T09:25:05.048Z,3.20
2018-09-11T09:27:32.060Z,3.10
2018-09-11T09:29:58.957Z,3.63
2018-09-11T09:32:25.894Z,4.63
2018-09-11T09:34:52.848Z,4.23
2018-09-11T09:37:19.807Z,3.70
2018-09-11T09:39:46.752Z,3.67
2018-09-11T09:42:13.713Z,4.10
2018-09-11T09:44:40.652Z,3.07
2018-09-11T09:47:07.591Z,3.63
2018-09-11T09:49:34.548Z,3.43
2018-09-11T09:52:01.487Z,3.10
2018-09-11T09:54:28.454Z,3.60
2018-09-11T09:59:35.852Z,3.70
2018-09-11T10:02:02.785Z,3.10
2018-09-11T10:04:29.744Z,3.40
2018-09-11T10:06:56.676Z,3.23
2018-09-11T10:09:23.681Z,2.97
2018-09-11T10:11:50.720Z,2.67
2018-09-11T10:14:17.587Z,2.93
2018-09-11T10:16:44.529Z,2.60
2018-09-11T10:19:11.482Z,3.20
2018-09-11T10:21:38.427Z,2.80
2018-09-11T10:24:05.391Z,3.07
2018-09-11T10:26:32.335Z,3.10
2018-09-11T10:28:59.297Z,3.67
2018-09-11T10:31:27.342Z,2.87
2018-09-11T10:33:54.349Z,2.60
2018-09-11T10:36:21.261Z,3.03
2018-09-11T10:38:48.207Z,3.10
2018-09-11T10:41:15.181Z,3.10
2018-09-11T10:43:42.130Z,3.07
2018-09-11T10:46:09.100Z,3.67
2018-09-11T10:48:36.139Z,3.27
2018-09-11T10:51:03.071Z,3.47
2018-09-11T10:53:30.038Z,3.30
2018-09-11T10:55:57.021Z,2.87
2018-09-11T10:58:24.037Z,3.17
2018-09-11T11:03:29.829Z,3.00
2018-09-11T11:05:56.803Z,2.97
2018-09-11T11:08:23.754Z,2.60
2018-09-11T11:10:50.698Z,2.80
2018-09-11T11:13:17.658Z,2.63
2018-09-11T11:15:44.625Z,3.13
2018-09-11T11:18:11.661Z,3.30
2018-09-11T11:20:38.605Z,2.70
2018-09-11T11:23:05.554Z,3.10
2018-09-11T11:25:32.520Z,3.30
2018-09-11T11:27:59.459Z,3.43
2018-09-11T11:30:26.504Z,2.93
2018-09-11T11:32:53.473Z,3.40
2018-09-11T11:35:20.406Z,3.23
2018-09-11T11:37:47.379Z,3.93
2018-09-11T11:40:14.310Z,3.07
2018-09-11T11:42:41.363Z,3.00
2018-09-11T11:45:08.249Z,3.30
2018-09-11T11:47:35.199Z,2.57
2018-09-11T11:50:02.206Z,3.50
2018-09-11T11:52:29.136Z,3.20
2018-09-11T11:54:56.085Z,3.00
2018-09-11T11:57:23.012Z,3.10
2018-09-11T11:59:49.940Z,3.20
2018-09-11T12:02:17.024Z,3.30
2018-09-11T12:04:43.985Z,3.80
2018-09-11T12:07:10.933Z,3.33
2018-09-11T12:09:37.906Z,3.43
2018-09-11T12:12:04.939Z,3.53
2018-09-11T12:14:31.899Z,3.20
2018-09-11T12:16:58.998Z,3.10
2018-09-11T12:19:25.878Z,3.63
2018-09-11T12:21:52.926Z,3.33
2018-09-11T12:24:19.863Z,3.20
2018-09-11T12:29:25.268Z,3.80
2018-09-11T12:31:52.231Z,3.30
2018-09-11T12:34:19.174Z,3.60
2018-09-11T12:36:46.128Z,3.63
2018-09-11T12:39:13.108Z,3.30
2018-09-11T12:41:40.046Z,3.30
2018-09-11T12:44:07.100Z,3.33
2018-09-11T12:46:34.446Z,3.30
2018-09-11T12:49:01.000Z,3.47
2018-09-11T12:51:27.966Z,3.73
2018-09-11T12:53:54.887Z,3.17
2018-09-11T12:56:22.126Z,3.13
2018-09-11T12:58:49.080Z,2.80
2018-09-11T13:01:16.040Z,2.97
2018-09-11T13:03:42.980Z,3.07
2018-09-11T13:06:09.938Z,3.50
2018-09-11T13:08:36.872Z,3.67
2018-09-11T13:11:03.818Z,3.33
2018-09-11T13:13:30.788Z,3.43
2018-09-11T13:15:58.424Z,3.27
2018-09-11T13:18:25.379Z,3.10
2018-09-11T13:20:52.339Z,2.93
2018-09-11T13:23:19.285Z,3.40
2018-09-11T13:25:46.265Z,3.37
2018-09-11T13:28:13.378Z,3.17
2018-09-11T13:30:40.331Z,3.00
2018-09-11T13:33:07.288Z,3.23
2018-09-11T13:35:34.295Z,3.17
2018-09-11T13:38:01.262Z,3.20
2018-09-11T13:40:28.223Z,2.93
2018-09-11T13:42:55.275Z,2.93
2018-09-11T13:45:22.244Z,2.87
2018-09-11T13:47:49.280Z,3.07
2018-09-11T13:52:54.686Z,3.27
2018-09-11T13:55:21.594Z,2.87
2018-09-11T13:57:48.572Z,3.33
2018-09-11T14:00:15.535Z,2.50
2018-09-11T14:02:42.588Z,2.60
2018-09-11T14:05:09.450Z,2.73
2018-09-11T14:07:37.121Z,2.47
2018-09-11T14:10:04.064Z,2.40
2018-09-11T14:12:31.030Z,2.80
2018-09-11T14:14:57.991Z,2.70
2018-09-11T14:17:24.958Z,2.40
2018-09-11T14:19:51.891Z,2.60
2018-09-11T14:22:18.846Z,2.53
2018-09-11T14:24:45.799Z,2.63
2018-09-11T14:27:12.752Z,2.63
2018-09-11T14:29:39.726Z,2.50
2018-09-11T14:32:06.665Z,2.63
2018-09-11T14:34:33.629Z,2.60
2018-09-11T14:37:01.233Z,2.30
2018-09-11T14:39:28.196Z,2.77
2018-09-11T14:41:55.144Z,2.77
2018-09-11T14:44:22.126Z,2.20
2018-09-11T14:46:49.098Z,2.92
2018-09-11T14:49:16.157Z,2.37
2018-09-11T14:51:43.111Z,2.70
2018-09-11T14:54:10.073Z,2.33
2018-09-11T14:56:37.049Z,2.17
2018-09-11T14:59:04.008Z,2.50
2018-09-11T15:01:30.970Z,2.17
2018-09-11T15:03:57.937Z,2.47
2018-09-11T15:06:24.886Z,1.77
2018-09-11T15:08:51.862Z,2.20
2018-09-11T15:11:18.833Z,1.97
2018-09-11T15:13:45.783Z,2.20
2018-09-11T15:16:12.799Z,2.30
2018-09-11T15:21:19.285Z,2.57
2018-09-11T15:23:46.247Z,2.40
2018-09-11T15:26:13.196Z,2.50
2018-09-11T15:28:40.137Z,2.13
2018-09-11T15:31:07.084Z,2.13
2018-09-11T15:33:34.016Z,2.07
2018-09-11T15:36:00.990Z,2.17
2018-09-11T15:38:27.925Z,2.30
2018-09-11T15:40:54.881Z,2.67
2018-09-11T15:43:22.622Z,2.43
2018-09-11T15:45:49.573Z,2.57
2018-09-11T15:48:16.506Z,2.37
2018-09-11T15:50:43.573Z,3.03
2018-09-11T15:53:10.549Z,2.63
2018-09-11T15:55:37.617Z,2.40
2018-09-11T15:58:04.538Z,2.50
2018-09-11T16:00:31.597Z,2.80
2018-09-11T16:02:58.582Z,2.30
2018-09-11T16:05:25.538Z,2.30
2018-09-11T16:07:52.477Z,2.43
2018-09-11T16:10:19.446Z,2.60
2018-09-11T16:12:46.594Z,2.63
2018-09-11T16:15:13.530Z,2.60
2018-09-11T16:17:40.477Z,2.60
2018-09-11T16:20:07.505Z,2.77
2018-09-11T16:22:34.455Z,3.40
2018-09-11T16:25:01.397Z,3.27
2018-09-11T16:27:28.348Z,3.00
2018-09-11T16:29:55.306Z,3.30
2018-09-11T16:32:22.229Z,2.90
2018-09-11T16:34:49.184Z,3.23
2018-09-11T16:37:16.122Z,3.43
2018-09-11T16:39:43.148Z,3.27
2018-09-11T16:44:49.436Z,3.47
2018-09-11T16:47:16.375Z,3.20
2018-09-11T16:49:43.325Z,3.50
2018-09-11T16:52:10.289Z,3.53
2018-09-11T16:54:37.231Z,3.07
2018-09-11T16:57:04.290Z,3.50
2018-09-11T16:59:31.255Z,2.93
2018-09-11T17:01:58.918Z,3.10
2018-09-11T17:04:25.860Z,3.33
2018-09-11T17:06:52.823Z,3.07
2018-09-11T17:09:19.801Z,2.90
2018-09-11T17:11:46.856Z,3.00
2018-09-11T17:14:13.826Z,3.40
2018-09-11T17:16:40.830Z,3.40
2018-09-11T17:19:08.024Z,3.10
2018-09-11T17:21:35.095Z,3.30
2018-09-11T17:24:02.116Z,3.00
2018-09-11T17:29:07.334Z,3.57
2018-09-11T17:31:34.611Z,3.23
2018-09-11T17:34:03.041Z,3.53
2018-09-11T17:36:30.066Z,3.00
2018-09-11T17:38:57.255Z,3.10
2018-09-11T17:41:24.433Z,3.37
2018-09-11T17:43:59.913Z,2.97
2018-09-11T17:46:29.912Z,3.80
2018-09-11T17:48:57.130Z,3.03
2018-09-11T17:51:24.071Z,3.17
2018-09-11T17:53:51.262Z,3.77
2018-09-11T17:56:18.274Z,3.63
2018-09-11T17:58:45.327Z,3.50
2018-09-11T18:01:12.440Z,3.57
2018-09-11T18:03:39.537Z,3.80
2018-09-11T18:06:06.692Z,3.73
2018-09-11T18:08:33.865Z,4.00
2018-09-11T18:11:01.266Z,4.37
2018-09-11T18:13:28.876Z,4.03
2018-09-11T18:15:56.109Z,4.03
2018-09-11T18:18:23.171Z,3.67
2018-09-11T18:20:50.364Z,3.97
2018-09-11T18:23:17.320Z,4.00
2018-09-11T18:25:44.453Z,3.67
2018-09-11T18:30:50.052Z,4.10
2018-09-11T18:33:18.012Z,3.67
2018-09-11T18:35:45.167Z,3.57
2018-09-11T18:38:12.359Z,4.07
2018-09-11T18:40:40.044Z,4.00
2018-09-11T18:43:08.021Z,4.20
2018-09-11T18:45:35.068Z,3.87
2018-09-11T18:48:02.138Z,3.60
2018-09-11T18:50:29.572Z,3.77
2018-09-11T18:52:56.817Z,4.07
2018-09-11T18:55:24.425Z,3.90
2018-09-11T18:57:51.532Z,4.00
2018-09-11T19:00:18.776Z,3.83
2018-09-11T19:02:45.890Z,3.70
2018-09-11T19:05:12.960Z,3.60
2018-09-11T19:07:39.893Z,3.83
2018-09-11T19:10:06.846Z,3.10
2018-09-11T19:12:33.967Z,3.20
2018-09-11T19:15:00.899Z,3.43
2018-09-11T19:17:27.838Z,3.73
2018-09-11T19:19:54.806Z,3.73
2018-09-11T19:22:21.752Z,3.43
2018-09-11T19:24:48.888Z,3.20
2018-09-11T19:27:15.834Z,3.13
2018-09-11T19:29:42.842Z,3.40
2018-09-11T19:32:09.785Z,3.30
2018-09-11T19:34:36.760Z,3.47
2018-09-11T19:37:03.725Z,3.43
2018-09-11T19:39:30.861Z,3.47
2018-09-11T19:41:57.861Z,3.40
2018-09-11T19:44:24.848Z,3.67
2018-09-11T19:46:51.838Z,3.73
2018-09-11T19:49:18.834Z,3.30
2018-09-11T19:54:36.155Z,3.60
2018-09-11T19:57:03.123Z,3.83
2018-09-11T19:59:32.213Z,3.70
2018-09-11T20:01:59.169Z,3.37
2018-09-11T20:04:26.218Z,3.30
2018-09-11T20:06:53.233Z,3.50
2018-09-11T20:09:20.176Z,3.53
2018-09-11T20:11:47.123Z,3.40
2018-09-11T20:14:14.233Z,3.60
2018-09-11T20:16:50.332Z,3.73
2018-09-11T20:19:17.462Z,3.27
2018-09-11T20:21:50.382Z,3.10
2018-09-11T20:24:17.482Z,3.53
2018-09-11T20:26:46.396Z,3.73
2018-09-11T20:29:16.138Z,3.03
2018-09-11T20:31:48.642Z,3.77
2018-09-11T20:36:57.967Z,3.65
2018-09-11T20:39:29.072Z,3.30
2018-09-11T20:41:56.643Z,3.60
2018-09-11T20:44:24.457Z,3.63
2018-09-11T20:46:52.245Z,3.20
2018-09-11T20:49:23.570Z,2.80
2018-09-11T20:54:31.414Z,3.83
2018-09-11T20:57:04.610Z,3.47
2018-09-11T20:59:32.828Z,3.50
2018-09-11T21:02:05.980Z,3.63
2018-09-11T21:04:48.005Z,3.37
2018-09-11T21:07:15.947Z,3.40
2018-09-11T21:09:42.961Z,3.57
2018-09-11T21:12:10.048Z,3.00
2018-09-11T21:17:15.335Z,3.72
2018-09-11T21:19:43.405Z,4.00
2018-09-11T21:22:16.338Z,3.53
2018-09-11T21:24:44.333Z,3.40
2018-09-11T21:27:12.028Z,3.73
2018-09-11T21:29:39.434Z,3.80
2018-09-11T21:32:06.168Z,3.87
2018-09-11T21:34:33.178Z,3.13
2018-09-11T21:37:00.264Z,3.57
2018-09-11T21:39:27.276Z,3.63
2018-09-11T21:41:54.332Z,4.23
2018-09-11T21:44:21.421Z,3.60
2018-09-11T21:46:48.449Z,3.70
2018-09-11T21:49:15.482Z,3.70
2018-09-11T21:51:42.567Z,3.63
2018-09-11T21:54:10.133Z,3.30
2018-09-11T21:56:37.141Z,2.73
2018-09-11T21:59:05.135Z,3.73
2018-09-11T22:01:33.168Z,3.93
2018-09-11T22:04:01.563Z,3.83
2018-09-11T22:06:28.518Z,3.67
2018-09-11T22:08:55.537Z,3.83
2018-09-11T22:11:23.356Z,3.63
2018-09-11T22:13:51.366Z,3.80
2018-09-11T22:18:57.954Z,3.80
2018-09-11T22:21:24.974Z,3.33
2018-09-11T22:23:53.202Z,3.70
2018-09-11T22:26:20.040Z,4.23
2018-09-11T22:28:47.187Z,3.47
2018-09-11T22:31:15.152Z,3.50
2018-09-11T22:33:42.204Z,3.63
2018-09-11T22:36:09.376Z,3.80
2018-09-11T22:38:36.392Z,3.30
2018-09-11T22:43:45.288Z,4.00
2018-09-11T22:46:12.341Z,4.60
2018-09-11T22:48:39.345Z,3.90
2018-09-11T22:51:06.356Z,3.77
2018-09-11T22:53:33.734Z,4.17
2018-09-11T22:56:01.685Z,4.57
2018-09-11T22:58:29.666Z,4.37
2018-09-11T23:00:57.464Z,4.30
2018-09-11T23:03:24.472Z,4.30
2018-09-11T23:05:51.611Z,4.07
2018-09-11T23:08:18.647Z,4.00
2018-09-11T23:10:45.666Z,3.90
2018-09-11T23:13:12.680Z,4.10
2018-09-11T23:15:39.735Z,4.73
2018-09-11T23:18:07.717Z,3.90
2018-09-11T23:20:35.684Z,3.67
2018-09-11T23:23:03.713Z,4.17
2018-09-11T23:25:30.734Z,3.60
2018-09-11T23:27:58.692Z,4.13
2018-09-11T23:30:25.738Z,3.77
2018-09-11T23:32:52.742Z,3.77
2018-09-11T23:35:19.759Z,4.13
2018-09-11T23:37:46.796Z,3.87
2018-09-11T23:40:13.805Z,3.70
2018-09-11T23:42:40.819Z,4.40
2018-09-11T23:45:08.806Z,4.80
2018-09-11T23:47:35.812Z,4.17
2018-09-11T23:50:04.611Z,3.97
2018-09-11T23:52:32.518Z,3.73
2018-09-11T23:57:38.051Z,4.30
